Natures Way Challenger — WDF7294 — position and weather

sailwx.info

Track history (hours):
 
Tides and Currents Weather Stations Pressure Air Temp Water Temp Dewpoint Dewpoint Depression Visibility Wind Speed Wind Dir Waves Ship Positions

Natures Way Challenger

Owner: Natures Way Marine, LLC, Theodore, AL. More information available from US FCC via Universal Licensing System and Coast Guard Vessel Documentation Center.

Last reported at 2015-Jul-31 04:33 UTC. Time now 2015-Aug-04 11:48 UTC.
Position N 29°33' W 094°55'.

Length 14 m.

Type: Towing. MMSI: 367483050.

Date/timePositionNaut miles runAvg speedWind from/ knotsBaromVisibWave heightAir tempDewpointWater temp
2015-Jul-31 04:33N 29°33' W 094°55'5 4.7
2015-Jul-31 03:33N 29°37' W 094°57'6 5.5
2015-Jul-31 02:32N 29°42' W 095°00'3 0.7
2015-Jul-30 21:33N 29°44' W 095°03'3 2.7
2015-Jul-30 20:33N 29°42' W 095°01'3 3.2
2015-Jul-30 19:33N 29°40' W 094°58'4 3.7
2015-Jul-30 18:33N 29°36' W 094°57'4 3.9
2015-Jul-30 17:33N 29°33' W 094°55'4 4.0
2015-Jul-30 16:27N 29°29' W 094°52'  
2015-Jul-26 04:19N 29°36' W 090°58'7 2.5
2015-Jul-26 01:23N 29°32' W 090°51'2 2.7
2015-Jul-26 00:33N 29°32' W 090°49'2 2.4
2015-Jul-25 23:33N 29°32' W 090°46'2 2.2
2015-Jul-25 22:33N 29°34' W 090°44'2 2.1
2015-Jul-25 21:33N 29°36' W 090°43'1 1.5
2015-Jul-25 20:33N 29°36' W 090°41'3 2.7
2015-Jul-25 19:33N 29°35' W 090°38'3 2.6
2015-Jul-25 18:33N 29°35' W 090°36'3 2.9
2015-Jul-25 17:33N 29°34' W 090°32'  
Track history (hours):
 
Tides and Currents Weather Stations Pressure Air Temp Water Temp Dewpoint Dewpoint Depression Visibility Wind Speed Wind Dir Waves Ship Positions

Natures Way Challenger

Owner: Natures Way Marine, LLC, Theodore, AL. More information available from US FCC via Universal Licensing System and Coast Guard Vessel Documentation Center.

Last reported at 2015-Jul-31 04:33 UTC. Time now 2015-Aug-04 11:48 UTC.
Position N 29°33' W 094°55'.

Length 14 m.

Type: Towing. MMSI: 367483050.

Date/timePositionNaut miles runAvg speedWind from/ knotsBaromVisibWave heightAir tempDewpointWater temp
2015-Jul-31 04:33N 29°33' W 094°55'5 4.7
2015-Jul-31 03:33N 29°37' W 094°57'6 5.5
2015-Jul-31 02:32N 29°42' W 095°00'3 0.7
2015-Jul-30 21:33N 29°44' W 095°03'3 2.7
2015-Jul-30 20:33N 29°42' W 095°01'3 3.2
2015-Jul-30 19:33N 29°40' W 094°58'4 3.7
2015-Jul-30 18:33N 29°36' W 094°57'4 3.9
2015-Jul-30 17:33N 29°33' W 094°55'4 4.0
2015-Jul-30 16:27N 29°29' W 094°52'  
2015-Jul-26 04:19N 29°36' W 090°58'7 2.5
2015-Jul-26 01:23N 29°32' W 090°51'2 2.7
2015-Jul-26 00:33N 29°32' W 090°49'2 2.4
2015-Jul-25 23:33N 29°32' W 090°46'2 2.2
2015-Jul-25 22:33N 29°34' W 090°44'2 2.1
2015-Jul-25 21:33N 29°36' W 090°43'1 1.5
2015-Jul-25 20:33N 29°36' W 090°41'3 2.7
2015-Jul-25 19:33N 29°35' W 090°38'3 2.6
2015-Jul-25 18:33N 29°35' W 090°36'3 2.9
2015-Jul-25 17:33N 29°34' W 090°32'  

Dump ship's entire track history